createdAt,value
2018-12-09T00:00:06.973Z,2.20
2018-12-09T00:01:06.952Z,2.00
2018-12-09T00:02:06.932Z,2.40
2018-12-09T00:03:06.915Z,2.00
2018-12-09T00:04:06.893Z,2.50
2018-12-09T00:05:06.871Z,2.20
2018-12-09T00:06:06.849Z,1.70
2018-12-09T00:07:06.838Z,2.00
2018-12-09T00:08:06.803Z,1.80
2018-12-09T00:09:06.789Z,1.90
2018-12-09T00:10:06.765Z,2.30
2018-12-09T00:11:06.744Z,2.40
2018-12-09T00:12:06.738Z,2.10
2018-12-09T00:13:06.713Z,2.10
2018-12-09T00:14:06.681Z,1.90
2018-12-09T00:15:06.661Z,1.70
2018-12-09T00:16:06.651Z,1.80
2018-12-09T00:17:06.626Z,2.00
2018-12-09T00:18:06.604Z,2.20
2018-12-09T00:19:06.582Z,2.00
2018-12-09T00:20:06.564Z,1.80
2018-12-09T00:21:06.541Z,2.10
2018-12-09T00:22:06.539Z,2.20
2018-12-09T00:23:06.524Z,2.40
2018-12-09T00:24:06.490Z,2.00
2018-12-09T00:25:06.460Z,2.20
2018-12-09T00:26:06.442Z,2.10
2018-12-09T00:27:06.417Z,2.10
2018-12-09T00:28:06.398Z,2.10
2018-12-09T00:29:06.387Z,2.50
2018-12-09T00:30:06.358Z,2.10
2018-12-09T00:31:06.339Z,2.60
2018-12-09T00:32:06.318Z,2.70
2018-12-09T00:33:06.304Z,2.40
2018-12-09T00:34:06.284Z,2.50
2018-12-09T00:35:06.259Z,2.60
2018-12-09T00:36:06.234Z,2.40
2018-12-09T00:37:06.214Z,2.10
2018-12-09T00:38:06.204Z,2.00
2018-12-09T00:39:06.174Z,2.20
2018-12-09T00:40:06.164Z,1.60
2018-12-09T00:41:06.136Z,1.90
2018-12-09T00:42:06.114Z,1.80
2018-12-09T00:43:06.098Z,1.80
2018-12-09T00:44:06.072Z,2.10
2018-12-09T00:45:06.054Z,1.80
2018-12-09T00:46:06.110Z,1.70
2018-12-09T00:47:06.016Z,1.80
2018-12-09T00:48:05.992Z,1.90
2018-12-09T00:49:05.970Z,2.20
2018-12-09T00:50:05.950Z,2.30
2018-12-09T00:51:05.933Z,2.00
2018-12-09T00:52:05.908Z,2.20
2018-12-09T00:53:05.890Z,2.40
2018-12-09T00:54:05.866Z,2.10
2018-12-09T00:55:05.852Z,1.90
2018-12-09T00:56:05.841Z,2.20
2018-12-09T00:57:05.806Z,2.10
2018-12-09T00:58:05.785Z,2.70
2018-12-09T00:59:05.769Z,2.20
2018-12-09T01:00:05.747Z,1.90
2018-12-09T01:01:05.727Z,2.10
2018-12-09T01:02:05.707Z,2.10
2018-12-09T01:03:05.683Z,2.10
2018-12-09T01:04:05.663Z,2.10
2018-12-09T01:05:05.652Z,2.20
2018-12-09T01:06:05.622Z,2.70
2018-12-09T01:07:05.601Z,2.50
2018-12-09T01:08:05.581Z,3.00
2018-12-09T01:09:05.567Z,2.80
2018-12-09T01:10:05.542Z,3.00
2018-12-09T01:11:05.526Z,3.00
2018-12-09T01:12:05.503Z,2.80
2018-12-09T01:13:05.479Z,3.40
2018-12-09T01:14:05.460Z,3.10
2018-12-09T01:15:05.440Z,3.30
2018-12-09T01:16:05.419Z,3.40
2018-12-09T01:17:05.402Z,4.00
2018-12-09T01:18:05.377Z,3.10
2018-12-09T01:19:05.356Z,3.00
2018-12-09T01:20:05.336Z,3.40
2018-12-09T01:21:05.317Z,4.30
2018-12-09T01:22:05.297Z,3.70
2018-12-09T01:23:05.278Z,3.20
2018-12-09T01:24:05.255Z,3.50
2018-12-09T01:25:05.238Z,3.40
2018-12-09T01:26:05.223Z,4.00
2018-12-09T01:27:05.195Z,3.30
2018-12-09T01:28:05.175Z,3.80
2018-12-09T01:29:05.156Z,4.20
2018-12-09T01:30:05.133Z,3.70
2018-12-09T01:31:05.114Z,4.30
2018-12-09T01:32:05.098Z,3.60
2018-12-09T01:33:05.076Z,3.60
2018-12-09T01:34:05.067Z,3.90
2018-12-09T01:35:05.036Z,3.90
2018-12-09T01:36:05.012Z,3.60
2018-12-09T01:37:04.993Z,3.70
2018-12-09T01:38:04.969Z,3.90
2018-12-09T01:39:04.958Z,4.10
2018-12-09T01:40:04.942Z,3.60
2018-12-09T01:41:04.911Z,4.20
2018-12-09T01:42:04.897Z,4.30
2018-12-09T01:43:04.877Z,4.40
2018-12-09T01:44:04.852Z,4.50
2018-12-09T01:45:04.833Z,4.10
2018-12-09T01:46:04.810Z,4.60
2018-12-09T01:47:04.795Z,4.10
2018-12-09T01:48:04.778Z,4.80
2018-12-09T01:49:04.748Z,3.70
2018-12-09T01:50:04.735Z,4.20
2018-12-09T01:51:04.708Z,4.90
2018-12-09T01:52:04.689Z,4.60
2018-12-09T01:53:04.677Z,3.90
2018-12-09T01:54:04.647Z,3.90
2018-12-09T01:55:04.637Z,4.10
2018-12-09T01:56:04.617Z,3.80
2018-12-09T01:57:04.587Z,4.60
2018-12-09T01:58:04.576Z,4.20
2018-12-09T01:59:04.548Z,4.30
2018-12-09T02:00:04.530Z,4.30
2018-12-09T02:01:04.508Z,4.50
2018-12-09T02:02:04.492Z,3.90
2018-12-09T02:03:04.466Z,4.20
2018-12-09T02:04:04.449Z,4.90
2018-12-09T02:05:04.423Z,4.00
2018-12-09T02:06:04.407Z,4.40
2018-12-09T02:07:04.386Z,4.70
2018-12-09T02:08:04.368Z,4.20
2018-12-09T02:09:04.345Z,4.10
2018-12-09T02:10:04.327Z,4.40
2018-12-09T02:11:04.312Z,4.20
2018-12-09T02:12:04.289Z,4.70
2018-12-09T02:13:04.267Z,4.50
2018-12-09T02:14:04.243Z,4.30
2018-12-09T02:15:04.231Z,3.40
2018-12-09T02:16:04.202Z,5.10
2018-12-09T02:17:04.184Z,4.70
2018-12-09T02:18:04.164Z,4.60
2018-12-09T02:19:04.142Z,4.90
2018-12-09T02:20:04.127Z,4.40
2018-12-09T02:21:04.101Z,4.80
2018-12-09T02:22:04.091Z,4.50
2018-12-09T02:23:04.062Z,4.80
2018-12-09T02:24:04.041Z,4.80
2018-12-09T02:25:04.020Z,4.50
2018-12-09T02:26:03.998Z,5.10
2018-12-09T02:27:03.988Z,4.50
2018-12-09T02:28:03.964Z,4.90
2018-12-09T02:29:03.941Z,4.60
2018-12-09T02:30:03.921Z,4.70
2018-12-09T02:31:03.900Z,4.70
2018-12-09T02:32:03.877Z,4.40
2018-12-09T02:33:03.861Z,4.80
2018-12-09T02:34:03.840Z,4.40
2018-12-09T02:35:03.819Z,4.90
2018-12-09T02:36:03.797Z,4.80
2018-12-09T02:37:03.780Z,5.00
2018-12-09T02:38:03.768Z,4.70
2018-12-09T02:39:03.738Z,4.80
2018-12-09T02:40:03.718Z,5.30
2018-12-09T02:41:03.699Z,4.40
2018-12-09T02:42:03.677Z,4.20
2018-12-09T02:43:03.670Z,4.70
2018-12-09T02:44:03.644Z,4.80
2018-12-09T02:45:03.618Z,4.60
2018-12-09T02:46:03.596Z,4.50
2018-12-09T02:47:03.576Z,4.80
2018-12-09T02:48:03.563Z,5.40
2018-12-09T02:49:03.537Z,4.60
2018-12-09T02:50:03.517Z,4.80
2018-12-09T02:51:03.497Z,4.80
2018-12-09T02:52:03.477Z,4.70
2018-12-09T02:53:03.456Z,5.70
2018-12-09T02:54:03.438Z,5.30
2018-12-09T02:55:03.417Z,5.40
2018-12-09T02:56:03.402Z,5.40
2018-12-09T02:57:03.376Z,5.40
2018-12-09T02:58:03.365Z,4.90
2018-12-09T02:59:03.340Z,5.30
2018-12-09T03:00:03.316Z,5.00
2018-12-09T03:01:03.296Z,5.20
2018-12-09T03:02:03.277Z,5.10
2018-12-09T03:03:03.254Z,5.60
2018-12-09T03:04:03.235Z,5.70
2018-12-09T03:05:03.215Z,5.80
2018-12-09T03:06:03.236Z,5.30
2018-12-09T03:07:03.174Z,6.10
2018-12-09T03:08:03.154Z,6.00
2018-12-09T03:09:03.144Z,5.50
2018-12-09T03:10:03.118Z,5.80
2018-12-09T03:11:03.095Z,5.40
2018-12-09T03:12:03.074Z,5.90
2018-12-09T03:13:03.060Z,5.20
2018-12-09T03:14:03.038Z,4.90
2018-12-09T03:15:03.014Z,5.80
2018-12-09T03:16:02.998Z,5.60
2018-12-09T03:17:02.975Z,5.00
2018-12-09T03:18:02.954Z,4.50
2018-12-09T03:19:02.936Z,5.00
2018-12-09T03:20:02.916Z,4.70
2018-12-09T03:21:02.895Z,4.80
2018-12-09T03:22:02.882Z,4.80
2018-12-09T03:23:02.853Z,4.20
2018-12-09T03:24:02.840Z,5.10
2018-12-09T03:25:02.819Z,4.30
2018-12-09T03:26:02.798Z,4.60
2018-12-09T03:27:02.774Z,3.90
2018-12-09T03:28:02.751Z,4.80
2018-12-09T03:29:02.734Z,4.80
2018-12-09T03:30:02.719Z,4.20
2018-12-09T03:31:02.696Z,4.10
2018-12-09T03:32:02.672Z,4.10
2018-12-09T03:33:02.650Z,3.90
2018-12-09T03:34:02.632Z,4.30
2018-12-09T03:35:02.653Z,4.00
2018-12-09T03:36:02.592Z,4.20
2018-12-09T03:37:02.571Z,4.50
2018-12-09T03:38:02.550Z,4.10
2018-12-09T03:39:02.531Z,4.40
2018-12-09T03:40:02.515Z,4.50
2018-12-09T03:41:02.490Z,4.40
2018-12-09T03:42:02.470Z,4.40
2018-12-09T03:43:02.451Z,4.00
2018-12-09T03:44:02.436Z,4.80
2018-12-09T03:45:02.417Z,4.60
2018-12-09T03:46:02.392Z,4.50
2018-12-09T03:47:02.371Z,3.80
2018-12-09T03:48:02.351Z,4.00
2018-12-09T03:49:02.329Z,3.90
2018-12-09T03:50:02.311Z,3.70
2018-12-09T03:51:02.290Z,4.00
2018-12-09T03:52:02.271Z,4.20
2018-12-09T03:53:02.257Z,4.40
2018-12-09T03:54:02.232Z,3.60
2018-12-09T03:55:02.211Z,3.80
2018-12-09T03:56:02.190Z,3.90
2018-12-09T03:57:02.178Z,3.80
2018-12-09T03:58:02.152Z,3.80
2018-12-09T03:59:02.129Z,4.10
2018-12-09T04:00:02.111Z,4.10
2018-12-09T04:01:02.091Z,4.00
2018-12-09T04:02:02.073Z,4.20
2018-12-09T04:03:02.047Z,4.40
2018-12-09T04:04:02.028Z,3.70
2018-12-09T04:05:02.006Z,4.10
2018-12-09T04:06:01.988Z,4.10
2018-12-09T04:07:01.970Z,4.10
2018-12-09T04:08:01.950Z,4.50
2018-12-09T04:09:01.927Z,4.30
2018-12-09T04:10:01.914Z,4.70
2018-12-09T04:11:01.886Z,4.90
2018-12-09T04:12:01.869Z,4.60
2018-12-09T04:13:01.852Z,4.40
2018-12-09T04:14:01.833Z,5.00
2018-12-09T04:15:01.806Z,5.00
2018-12-09T04:16:01.785Z,4.70
2018-12-09T04:17:01.766Z,4.70
2018-12-09T04:18:01.748Z,5.00
2018-12-09T04:19:01.724Z,4.90
2018-12-09T04:20:01.705Z,5.60
2018-12-09T04:21:01.684Z,5.00
2018-12-09T04:22:01.664Z,4.60
2018-12-09T04:23:01.648Z,5.10
2018-12-09T04:24:01.622Z,4.60
2018-12-09T04:25:01.605Z,5.40
2018-12-09T04:26:01.588Z,4.40
2018-12-09T04:27:01.562Z,4.40
2018-12-09T04:28:01.546Z,3.90
2018-12-09T04:29:01.522Z,3.60
2018-12-09T04:30:01.510Z,3.40
2018-12-09T04:31:01.481Z,3.40
2018-12-09T04:32:01.464Z,2.90
2018-12-09T04:33:01.442Z,2.90
2018-12-09T04:34:01.420Z,3.80
2018-12-09T04:35:01.421Z,3.80
2018-12-09T04:36:01.381Z,3.50
2018-12-09T04:37:01.362Z,4.80
2018-12-09T04:38:01.343Z,4.40
2018-12-09T04:39:01.331Z,4.60
2018-12-09T04:40:01.303Z,4.90
2018-12-09T04:41:01.278Z,4.60
2018-12-09T04:42:01.260Z,4.70
2018-12-09T04:43:01.239Z,4.60
2018-12-09T04:44:01.218Z,5.20
2018-12-09T04:45:01.210Z,4.90
2018-12-09T04:46:01.180Z,4.70
2018-12-09T04:47:01.158Z,5.60
2018-12-09T04:48:01.136Z,4.90
2018-12-09T04:49:01.118Z,5.20
2018-12-09T04:50:01.097Z,5.10
2018-12-09T04:51:01.077Z,5.00
2018-12-09T04:52:01.056Z,5.20
2018-12-09T04:53:01.039Z,4.70
2018-12-09T04:54:01.025Z,5.10
2018-12-09T04:55:00.999Z,5.50
2018-12-09T04:56:00.977Z,5.20
2018-12-09T04:57:00.955Z,5.10
2018-12-09T04:58:00.936Z,4.80
2018-12-09T04:59:00.915Z,5.20
2018-12-09T05:00:00.894Z,5.10
2018-12-09T05:01:00.877Z,5.20
2018-12-09T05:02:00.855Z,4.50
2018-12-09T05:03:00.838Z,5.20
2018-12-09T05:04:00.816Z,4.70
2018-12-09T05:05:00.794Z,5.30
2018-12-09T05:06:00.772Z,4.80
2018-12-09T05:07:00.753Z,4.50
2018-12-09T05:08:00.733Z,4.60
2018-12-09T05:09:00.786Z,5.60
2018-12-09T05:10:00.691Z,4.80
2018-12-09T05:11:00.673Z,5.10
2018-12-09T05:12:00.653Z,4.80
2018-12-09T05:13:00.634Z,4.50
2018-12-09T05:14:00.617Z,5.00
2018-12-09T05:15:00.593Z,5.40
2018-12-09T05:16:00.574Z,4.70
2018-12-09T05:17:00.551Z,4.50
2018-12-09T05:18:00.531Z,4.50
2018-12-09T05:19:00.517Z,4.60
2018-12-09T05:20:00.490Z,4.70
2018-12-09T05:21:00.472Z,5.00
2018-12-09T05:22:00.462Z,5.20
2018-12-09T05:23:00.432Z,5.10
2018-12-09T05:24:00.516Z,4.50
2018-12-09T05:25:00.394Z,4.60
2018-12-09T05:26:00.372Z,4.90
2018-12-09T05:27:00.350Z,4.90
2018-12-09T05:28:00.329Z,5.40
2018-12-09T05:29:00.344Z,5.10
2018-12-09T05:30:00.301Z,5.10
2018-12-09T05:31:00.270Z,4.20
2018-12-09T05:32:00.255Z,4.30
2018-12-09T05:33:00.229Z,4.70
2018-12-09T05:34:00.212Z,5.00
2018-12-09T05:35:00.190Z,4.70
2018-12-09T05:36:00.169Z,4.60
2018-12-09T05:37:00.152Z,4.20
2018-12-09T05:38:00.131Z,4.70
2018-12-09T05:39:00.110Z,4.60
2018-12-09T05:40:00.088Z,3.90
2018-12-09T05:41:00.067Z,4.60
2018-12-09T05:42:00.049Z,4.10
2018-12-09T05:43:00.030Z,4.90
2018-12-09T05:44:00.009Z,4.50
2018-12-09T05:44:59.988Z,4.80
2018-12-09T05:45:59.972Z,4.40
2018-12-09T05:46:59.953Z,4.30
2018-12-09T05:47:59.929Z,4.70
2018-12-09T05:48:59.908Z,4.40
2018-12-09T05:49:59.889Z,4.40
2018-12-09T05:50:59.882Z,4.20
2018-12-09T05:51:59.847Z,4.60
2018-12-09T05:52:59.828Z,5.10
2018-12-09T05:53:59.813Z,4.70
2018-12-09T05:54:59.791Z,4.70
2018-12-09T05:55:59.780Z,4.30
2018-12-09T05:56:59.757Z,4.70
2018-12-09T05:57:59.731Z,4.70
2018-12-09T05:58:59.709Z,4.30
2018-12-09T05:59:59.687Z,4.10
2018-12-09T06:00:59.667Z,4.20
2018-12-09T06:01:59.644Z,4.40
2018-12-09T06:02:59.631Z,4.00
2018-12-09T06:03:59.606Z,4.20
2018-12-09T06:04:59.587Z,4.20
2018-12-09T06:05:59.569Z,3.70
2018-12-09T06:06:59.547Z,4.10
2018-12-09T06:07:59.530Z,4.40
2018-12-09T06:08:59.507Z,4.40
2018-12-09T06:09:59.485Z,4.30
2018-12-09T06:10:59.466Z,5.20
2018-12-09T06:11:59.445Z,4.20
2018-12-09T06:12:59.425Z,3.80
2018-12-09T06:13:59.406Z,3.90
2018-12-09T06:14:59.387Z,4.10
2018-12-09T06:15:59.374Z,4.80
2018-12-09T06:16:59.343Z,4.60
2018-12-09T06:17:59.332Z,4.00
2018-12-09T06:18:59.303Z,4.10
2018-12-09T06:19:59.292Z,3.90
2018-12-09T06:20:59.266Z,4.50
2018-12-09T06:21:59.246Z,4.10
2018-12-09T06:22:59.222Z,4.00
2018-12-09T06:23:59.208Z,4.20
2018-12-09T06:24:59.196Z,4.20
2018-12-09T06:25:59.172Z,4.10
2018-12-09T06:26:59.143Z,4.30
2018-12-09T06:27:59.127Z,4.30
2018-12-09T06:28:59.106Z,4.60
2018-12-09T06:29:59.086Z,4.50
2018-12-09T06:30:59.066Z,4.50
2018-12-09T06:31:59.042Z,4.90
2018-12-09T06:32:59.022Z,4.90
2018-12-09T06:33:59.005Z,4.20
2018-12-09T06:34:58.981Z,3.90
2018-12-09T06:35:58.968Z,4.60
2018-12-09T06:36:58.943Z,4.60
2018-12-09T06:37:58.919Z,5.00
2018-12-09T06:38:58.899Z,3.80
2018-12-09T06:39:58.883Z,4.60
2018-12-09T06:40:58.864Z,4.50
2018-12-09T06:42:00.612Z,4.60
2018-12-09T06:42:58.819Z,4.70
2018-12-09T06:43:58.799Z,5.10
2018-12-09T06:44:58.780Z,5.00
2018-12-09T06:45:58.763Z,4.80
2018-12-09T06:46:58.742Z,4.60
2018-12-09T06:47:58.718Z,5.20
2018-12-09T06:48:58.707Z,5.00
2018-12-09T06:49:58.679Z,4.70
2018-12-09T06:50:58.661Z,4.40
2018-12-09T06:51:58.645Z,3.80
2018-12-09T06:52:58.618Z,4.90
2018-12-09T06:53:58.596Z,5.00
2018-12-09T06:54:58.587Z,4.00
2018-12-09T06:55:58.557Z,4.10
2018-12-09T06:56:58.536Z,4.60
2018-12-09T06:57:58.516Z,4.50
2018-12-09T06:58:58.498Z,4.60
2018-12-09T06:59:58.479Z,4.50
2018-12-09T07:00:58.457Z,4.30
2018-12-09T07:01:58.439Z,3.90
2018-12-09T07:02:58.420Z,4.00
2018-12-09T07:03:58.395Z,3.50
2018-12-09T07:04:58.378Z,3.20
2018-12-09T07:05:58.356Z,3.90
2018-12-09T07:06:58.334Z,3.80
2018-12-09T07:07:58.312Z,3.70
2018-12-09T07:08:58.293Z,3.40
2018-12-09T07:09:58.279Z,3.50
2018-12-09T07:10:58.254Z,3.90
2018-12-09T07:11:58.233Z,3.40
2018-12-09T07:12:58.214Z,3.70
2018-12-09T07:13:58.194Z,3.70
2018-12-09T07:14:58.176Z,3.30
2018-12-09T07:15:58.151Z,3.80
2018-12-09T07:16:58.133Z,3.20
2018-12-09T07:17:58.113Z,3.20
2018-12-09T07:18:58.099Z,2.90
2018-12-09T07:19:58.070Z,2.90
2018-12-09T07:20:58.052Z,3.60
2018-12-09T07:21:58.032Z,3.10
2018-12-09T07:22:58.013Z,2.90
2018-12-09T07:23:57.989Z,3.20
2018-12-09T07:24:57.971Z,2.70
2018-12-09T07:25:57.951Z,2.90
2018-12-09T07:26:57.928Z,3.00
2018-12-09T07:27:57.909Z,2.80
2018-12-09T07:28:57.891Z,3.20
2018-12-09T07:30:02.148Z,3.00
2018-12-09T07:30:57.852Z,2.60
2018-12-09T07:31:57.830Z,2.60
2018-12-09T07:32:57.815Z,3.00
2018-12-09T07:33:58.718Z,2.90
2018-12-09T07:34:57.873Z,3.00
2018-12-09T07:35:57.749Z,3.00
2018-12-09T07:36:57.728Z,2.90
2018-12-09T07:37:57.706Z,3.10
2018-12-09T07:38:57.686Z,2.70
2018-12-09T07:39:57.667Z,2.90
2018-12-09T07:40:57.647Z,3.00
2018-12-09T07:41:57.630Z,2.80
2018-12-09T07:42:57.610Z,2.90
2018-12-09T07:43:57.595Z,3.10
2018-12-09T07:44:57.566Z,3.00
2018-12-09T07:45:57.554Z,2.80
2018-12-09T07:46:57.527Z,2.60
2018-12-09T07:47:57.509Z,2.60
2018-12-09T07:48:57.486Z,2.60
2018-12-09T07:49:57.475Z,3.70
2018-12-09T07:50:57.448Z,2.80
2018-12-09T07:51:57.437Z,3.10
2018-12-09T07:52:57.406Z,2.70
2018-12-09T07:53:57.387Z,2.80
2018-12-09T07:54:57.367Z,3.20
2018-12-09T07:55:57.353Z,3.10
2018-12-09T07:56:57.326Z,3.30
2018-12-09T07:57:57.307Z,3.10
2018-12-09T07:58:57.284Z,3.10
2018-12-09T07:59:57.266Z,3.40
2018-12-09T08:00:57.242Z,3.10
2018-12-09T08:01:57.226Z,3.50
2018-12-09T08:02:57.214Z,3.30
2018-12-09T08:03:57.179Z,3.00
2018-12-09T08:04:57.165Z,3.40
2018-12-09T08:05:57.146Z,3.60
2018-12-09T08:06:57.123Z,3.90
2018-12-09T08:07:57.099Z,3.30
2018-12-09T08:08:57.083Z,3.80
2018-12-09T08:09:57.060Z,3.70
2018-12-09T08:10:57.048Z,3.60
2018-12-09T08:11:57.019Z,3.40
2018-12-09T08:12:57.002Z,3.60
2018-12-09T08:13:56.982Z,3.00
2018-12-09T08:14:56.961Z,2.50
2018-12-09T08:15:56.938Z,1.90
2018-12-09T08:16:56.924Z,2.30
2018-12-09T08:17:56.899Z,2.20
2018-12-09T08:18:56.886Z,2.00
2018-12-09T08:19:56.858Z,1.80
2018-12-09T08:20:56.846Z,2.00
2018-12-09T08:21:56.821Z,1.90
2018-12-09T08:22:56.798Z,1.90
2018-12-09T08:23:56.776Z,1.70
2018-12-09T08:24:56.758Z,1.70
2018-12-09T08:25:56.734Z,1.70
2018-12-09T08:26:56.714Z,1.80
2018-12-09T08:27:56.701Z,1.40
2018-12-09T08:28:56.673Z,1.50
2018-12-09T08:29:56.655Z,1.70
2018-12-09T08:30:56.632Z,1.60
2018-12-09T08:31:56.611Z,1.60
2018-12-09T08:32:56.594Z,1.70
2018-12-09T08:33:56.570Z,1.70
2018-12-09T08:34:56.552Z,2.10
2018-12-09T08:35:56.531Z,2.70
2018-12-09T08:36:56.513Z,1.90
2018-12-09T08:37:56.490Z,1.80
2018-12-09T08:38:56.475Z,1.60
2018-12-09T08:39:56.455Z,1.60
2018-12-09T08:40:56.430Z,1.50
2018-12-09T08:41:56.408Z,1.50
2018-12-09T08:42:56.386Z,1.50
2018-12-09T08:43:56.371Z,1.60
2018-12-09T08:44:56.351Z,1.50
2018-12-09T08:45:57.294Z,1.50
2018-12-09T08:46:56.304Z,1.70
2018-12-09T08:47:56.283Z,1.70
2018-12-09T08:48:56.264Z,1.60
2018-12-09T08:49:56.248Z,1.30
2018-12-09T08:50:56.225Z,1.30
2018-12-09T08:51:56.205Z,1.10
2018-12-09T08:52:56.191Z,1.40
2018-12-09T08:53:56.162Z,1.30
2018-12-09T08:54:56.141Z,1.30
2018-12-09T08:55:56.121Z,1.40
2018-12-09T08:56:56.100Z,1.30
2018-12-09T08:57:56.085Z,1.40
2018-12-09T08:58:56.059Z,1.20
2018-12-09T08:59:56.038Z,1.50
2018-12-09T09:00:56.022Z,1.60
2018-12-09T09:01:55.999Z,1.60
2018-12-09T09:02:55.991Z,1.40
2018-12-09T09:03:55.957Z,1.60
2018-12-09T09:04:55.946Z,1.50
2018-12-09T09:05:55.918Z,1.30
2018-12-09T09:06:55.909Z,1.20
2018-12-09T09:07:55.874Z,1.70
2018-12-09T09:08:55.864Z,1.40
2018-12-09T09:09:55.836Z,1.40
2018-12-09T09:10:55.823Z,1.40
2018-12-09T09:11:55.802Z,1.50
2018-12-09T09:12:55.776Z,1.30
2018-12-09T09:13:55.753Z,1.50
2018-12-09T09:14:55.735Z,1.40
2018-12-09T09:15:55.711Z,2.00
2018-12-09T09:16:55.703Z,1.50
2018-12-09T09:17:55.672Z,1.30
2018-12-09T09:18:55.656Z,1.20
2018-12-09T09:19:55.632Z,1.50
2018-12-09T09:20:55.609Z,1.50
2018-12-09T09:21:55.595Z,1.30
2018-12-09T09:22:55.576Z,1.50
2018-12-09T09:23:55.549Z,1.30
2018-12-09T09:24:55.530Z,1.40
2018-12-09T09:25:55.509Z,1.30
2018-12-09T09:26:55.488Z,1.70
2018-12-09T09:27:55.467Z,1.30
2018-12-09T09:28:55.455Z,1.40
2018-12-09T09:29:55.430Z,1.50
2018-12-09T09:30:55.413Z,1.20
2018-12-09T09:31:55.387Z,1.50
2018-12-09T09:32:55.364Z,1.30
2018-12-09T09:33:55.350Z,1.40
2018-12-09T09:34:55.396Z,1.60
2018-12-09T09:35:55.304Z,1.40
2018-12-09T09:36:55.286Z,1.40
2018-12-09T09:37:55.266Z,1.40
2018-12-09T09:38:55.910Z,1.10
2018-12-09T09:39:55.230Z,1.30
2018-12-09T09:40:55.208Z,1.50
2018-12-09T09:41:55.189Z,1.40
2018-12-09T09:42:55.168Z,1.40
2018-12-09T09:43:55.155Z,1.40
2018-12-09T09:44:55.130Z,1.30
2018-12-09T09:45:55.106Z,1.40
2018-12-09T09:46:55.087Z,1.30
2018-12-09T09:47:55.065Z,1.20
2018-12-09T09:48:55.045Z,1.60
2018-12-09T09:49:55.123Z,1.50
2018-12-09T09:50:55.006Z,1.50
2018-12-09T09:51:55.005Z,1.30
2018-12-09T09:52:54.962Z,1.30
2018-12-09T09:53:54.940Z,1.50
2018-12-09T09:54:54.925Z,1.30
2018-12-09T09:55:54.904Z,1.40
2018-12-09T09:56:54.885Z,1.50
2018-12-09T09:57:54.862Z,2.70
2018-12-09T09:58:54.854Z,1.40
2018-12-09T09:59:54.817Z,1.40
2018-12-09T10:00:54.807Z,1.40
2018-12-09T10:01:54.777Z,1.30
2018-12-09T10:02:54.759Z,1.60
2018-12-09T10:03:54.739Z,1.50
2018-12-09T10:04:54.719Z,1.20
2018-12-09T10:05:54.703Z,1.50
2018-12-09T10:06:54.676Z,1.50
2018-12-09T10:07:54.660Z,1.40
2018-12-09T10:08:54.636Z,1.40
2018-12-09T10:09:54.617Z,1.60
2018-12-09T10:10:54.596Z,1.60
2018-12-09T10:11:54.575Z,1.70
2018-12-09T10:12:54.555Z,1.80
2018-12-09T10:13:54.540Z,1.70
2018-12-09T10:14:54.514Z,1.80
2018-12-09T10:15:54.504Z,1.50
2018-12-09T10:16:54.485Z,1.30
2018-12-09T10:17:54.461Z,1.70
2018-12-09T10:18:54.436Z,1.50
2018-12-09T10:19:54.413Z,1.40
2018-12-09T10:20:54.393Z,1.30
2018-12-09T10:21:54.380Z,1.40
2018-12-09T10:22:54.355Z,1.40
2018-12-09T10:23:54.331Z,1.40
2018-12-09T10:24:54.314Z,1.50
2018-12-09T10:25:54.294Z,1.60
2018-12-09T10:26:54.281Z,1.60
2018-12-09T10:27:54.254Z,1.60
2018-12-09T10:28:54.232Z,1.30
2018-12-09T10:29:54.216Z,1.60
2018-12-09T10:30:54.192Z,1.30
2018-12-09T10:31:54.173Z,1.30
2018-12-09T10:32:54.155Z,1.50
2018-12-09T10:33:54.132Z,1.20
2018-12-09T10:34:54.113Z,1.40
2018-12-09T10:35:54.096Z,1.70
2018-12-09T10:36:54.072Z,1.40
2018-12-09T10:37:54.054Z,1.30
2018-12-09T10:38:54.037Z,1.30
2018-12-09T10:39:54.014Z,1.60
2018-12-09T10:40:54.002Z,1.40
2018-12-09T10:41:53.983Z,1.40
2018-12-09T10:42:53.966Z,1.40
2018-12-09T10:43:53.939Z,1.60
2018-12-09T10:44:53.915Z,1.40
2018-12-09T10:45:53.899Z,1.40
2018-12-09T10:46:53.884Z,1.30
2018-12-09T10:47:53.868Z,1.40
2018-12-09T10:48:53.841Z,1.60
2018-12-09T10:49:53.817Z,1.40
2018-12-09T10:50:53.808Z,1.30
2018-12-09T10:51:53.781Z,1.40
2018-12-09T10:52:53.774Z,1.50
2018-12-09T10:53:53.746Z,1.60
2018-12-09T10:54:53.728Z,1.80
2018-12-09T10:55:53.712Z,1.60
2018-12-09T10:56:53.700Z,1.50
2018-12-09T10:57:53.667Z,2.00
2018-12-09T10:58:53.660Z,2.10
2018-12-09T10:59:53.634Z,1.80
2018-12-09T11:00:53.620Z,1.50
2018-12-09T11:01:53.594Z,1.50
2018-12-09T11:02:53.573Z,2.70
2018-12-09T11:03:53.570Z,5.00
2018-12-09T11:04:53.545Z,1.50
2018-12-09T11:05:53.522Z,1.80
2018-12-09T11:06:53.501Z,1.40
2018-12-09T11:07:53.482Z,2.10
2018-12-09T11:08:53.464Z,1.80
2018-12-09T11:09:53.444Z,1.90
2018-12-09T11:10:53.429Z,1.80
2018-12-09T11:11:53.413Z,1.70
2018-12-09T11:12:53.410Z,2.10
2018-12-09T11:13:58.000Z,1.80
2018-12-09T11:14:53.358Z,1.80
2018-12-09T11:15:53.338Z,1.90
2018-12-09T11:16:53.324Z,1.70
2018-12-09T11:17:53.299Z,1.70
2018-12-09T11:18:53.279Z,1.70
2018-12-09T11:19:53.264Z,1.70
2018-12-09T11:20:53.240Z,1.90
2018-12-09T11:21:53.234Z,1.50
2018-12-09T11:22:53.204Z,1.60
2018-12-09T11:23:53.185Z,1.50
2018-12-09T11:24:53.181Z,1.70
2018-12-09T11:25:53.152Z,1.60
2018-12-09T11:26:53.143Z,2.00
2018-12-09T11:27:53.118Z,2.00
2018-12-09T11:28:53.090Z,1.70
2018-12-09T11:29:53.075Z,1.80
2018-12-09T11:30:53.051Z,2.00
2018-12-09T11:31:53.058Z,2.10
2018-12-09T11:32:53.023Z,1.60
2018-12-09T11:33:52.994Z,1.70
2018-12-09T11:34:52.978Z,1.60
2018-12-09T11:35:52.958Z,1.70
2018-12-09T11:36:52.937Z,1.90
2018-12-09T11:37:52.918Z,2.00
2018-12-09T11:38:52.903Z,1.70
2018-12-09T11:39:52.878Z,2.00
2018-12-09T11:40:52.858Z,2.00
2018-12-09T11:41:52.841Z,1.90
2018-12-09T11:42:52.827Z,2.00
2018-12-09T11:43:52.814Z,2.10
2018-12-09T11:44:52.787Z,2.00
2018-12-09T11:45:52.771Z,2.10
2018-12-09T11:46:52.751Z,2.70
2018-12-09T11:47:52.737Z,2.20
2018-12-09T11:48:52.707Z,2.30
2018-12-09T11:49:52.692Z,2.30
2018-12-09T11:50:52.677Z,2.00
2018-12-09T11:51:52.660Z,2.30
2018-12-09T11:52:52.638Z,2.00
2018-12-09T11:53:52.628Z,1.90
2018-12-09T11:54:52.603Z,2.10
2018-12-09T11:55:52.583Z,2.00
2018-12-09T11:56:52.568Z,2.00
2018-12-09T11:57:52.545Z,1.90
2018-12-09T11:58:52.528Z,2.10
2018-12-09T11:59:52.520Z,2.50
2018-12-09T12:00:52.492Z,2.10
2018-12-09T12:01:52.591Z,2.50
2018-12-09T12:02:52.452Z,2.40
2018-12-09T12:03:52.431Z,2.00
2018-12-09T12:04:52.418Z,2.10
2018-12-09T12:05:52.397Z,2.00
2018-12-09T12:06:52.378Z,2.10
2018-12-09T12:07:52.364Z,2.00
2018-12-09T12:08:52.348Z,2.20
2018-12-09T12:09:52.333Z,2.20
2018-12-09T12:10:52.307Z,2.10
2018-12-09T12:11:52.288Z,2.40
2018-12-09T12:12:52.269Z,2.50
2018-12-09T12:13:52.256Z,2.20
2018-12-09T12:14:52.233Z,2.70
2018-12-09T12:15:52.214Z,2.30
2018-12-09T12:16:52.195Z,2.50
2018-12-09T12:17:52.179Z,2.20
2018-12-09T12:18:52.162Z,2.40
2018-12-09T12:19:52.147Z,2.30
2018-12-09T12:20:52.126Z,2.50
2018-12-09T12:21:52.111Z,2.60
2018-12-09T12:22:52.100Z,2.40
2018-12-09T12:23:52.079Z,2.60
2018-12-09T12:24:52.063Z,2.30
2018-12-09T12:25:52.048Z,2.50
2018-12-09T12:26:52.046Z,2.30
2018-12-09T12:27:52.007Z,2.70
2018-12-09T12:28:51.990Z,2.70
2018-12-09T12:29:51.979Z,2.40
2018-12-09T12:30:51.965Z,2.60
2018-12-09T12:31:51.946Z,2.60
2018-12-09T12:32:51.922Z,2.40
2018-12-09T12:33:51.906Z,2.70
2018-12-09T12:34:51.891Z,2.80
2018-12-09T12:35:51.885Z,2.60
2018-12-09T12:36:51.861Z,2.70
2018-12-09T12:37:51.837Z,2.80
2018-12-09T12:38:51.819Z,3.00
2018-12-09T12:39:51.801Z,2.70
2018-12-09T12:40:51.786Z,2.50
2018-12-09T12:41:51.772Z,5.00
2018-12-09T12:42:51.755Z,6.00
2018-12-09T12:43:51.834Z,3.40
2018-12-09T12:44:51.726Z,3.20
2018-12-09T12:45:51.700Z,2.90
2018-12-09T12:46:51.679Z,2.90
2018-12-09T12:47:51.663Z,2.80
2018-12-09T12:48:51.644Z,2.60
2018-12-09T12:49:51.629Z,2.80
2018-12-09T12:50:51.626Z,2.50
2018-12-09T12:51:51.598Z,2.60
2018-12-09T12:52:51.574Z,3.00
2018-12-09T12:53:51.560Z,3.00
2018-12-09T12:54:51.543Z,2.90
2018-12-09T12:55:51.521Z,3.00
2018-12-09T12:56:51.503Z,3.20
2018-12-09T12:57:51.496Z,2.90
2018-12-09T12:58:51.464Z,3.10
2018-12-09T12:59:51.464Z,3.40
2018-12-09T13:00:51.425Z,2.60
2018-12-09T13:01:51.414Z,2.80
2018-12-09T13:02:51.387Z,3.10
2018-12-09T13:03:51.381Z,3.20
2018-12-09T13:04:51.353Z,2.50
2018-12-09T13:05:51.334Z,2.60
2018-12-09T13:06:51.318Z,2.90
2018-12-09T13:07:51.307Z,2.80
2018-12-09T13:08:51.281Z,3.00
2018-12-09T13:09:51.261Z,3.10
2018-12-09T13:10:51.246Z,2.90
2018-12-09T13:11:51.228Z,2.70
2018-12-09T13:12:51.206Z,2.90
2018-12-09T13:13:51.190Z,3.20
2018-12-09T13:14:51.174Z,3.50
2018-12-09T13:15:51.143Z,2.90
2018-12-09T13:16:51.130Z,3.00
2018-12-09T13:17:51.109Z,3.40